Bei Facebook empfehlenBei Twitter postenGoogle plusPinterest

Das Wetter im Erzgebirge am 05.08.2015

Wetter und Klima am 05.08.2015 Holzhau im Erzgebirge (630m ü.NN)
Letzte gemessene Temperatur und Uhrzeit der Messung23:45:00 Uhr14.90 °C
Temperatur (Maximum / Höchstwert) und Uhrzeit der Messung16:30:00 Uhr27.80 °C
Temperatur (Minimum / Tiefstwert) und Uhrzeit der Messung05:15:0014.10 °C
Errechneter Absolutwert der Temperaturschwankungen zwischen Tmin und Tmax des Tages13.70 K
Errechnete Tagesmitteltemperatur20.22083 °C
Gesamt - Niederschlag des Tages (in flüssiger Form)0.00 Liter / m²
Luftdruck (Maximum / Höchstwert) und Zeitpunkt der Messung10:45:00 Uhr1019.30 hPa
Luftdruck (Minimum / Tiefstwert) und Zeitpunkt der Messung00:15:00 Uhr1016.40 hPa
Errechneter Absolutwert der Luftdruckschwankungen des Tages2.90 hPa
Höchste gemessene Windgeschwindigkeit und Uhrzeit der Messung15:45:00 Uhr183.60 km/h
Errechnete Windhäufigkeit in Relation zu den Messwerten des Tages1.04167 %
Niedrigste Windkühle (Windchill) und Zeitpunkt der Messung05:15:00 Uhr14.10 °C
Taupunkt (Maximum / Höchstwert) und Uhrzeit der Messung16:30:00 Uhr17.00 °C
Taupunkt (Minimum / Tiefstwert) und Uhrzeit der Messung22:15:0011.80 °C
Anzahl der automatisch eingelesenen Messwerte 96

Detaillierte Wetter- und Klima- Messwerte für den 05.08.2015 in Holzhau im Erzgebirge (630m ü.NN)
ZeitTemperaturLuftdruckRel. LuftfeuchteWindWindrichtungWindchillTaupunktNiederschlag l/m²
23:45:0014.90 °C1017.50 hPa83.00 %12.00 °C 
23:30:0015.00 °C1017.70 hPa82.00 %12.00 °C 
23:15:0015.20 °C1017.50 hPa82.00 %12.10 °C 
23:00:0015.30 °C1017.60 hPa81.00 %12.10 °C 
22:45:0015.30 °C1017.60 hPa81.00 %12.10 °C 
22:30:0015.40 °C1017.80 hPa80.00 %12.00 °C 
22:15:0015.60 °C1017.60 hPa78.00 %11.80 °C 
22:00:0015.90 °C1017.80 hPa77.00 %11.90 °C 
21:45:0016.40 °C1017.70 hPa75.00 %12.00 °C 
21:30:0017.00 °C1017.90 hPa72.00 %11.90 °C 
21:15:0017.90 °C1017.70 hPa70.00 %12.40 °C 
21:00:0018.70 °C1017.50 hPa69.00 %12.90 °C 
20:45:0019.60 °C1017.20 hPa66.00 %13.10 °C 
20:30:0020.60 °C1017.10 hPa63.00 %13.30 °C 
20:15:0021.50 °C1017.20 hPa62.00 %13.90 °C 
20:00:0022.10 °C1017.20 hPa61.00 %14.20 °C 
19:45:0022.60 °C1017.30 hPa60.00 %14.40 °C 
19:30:0023.00 °C1017.20 hPa59.00 %14.60 °C 
19:15:0023.40 °C1017.20 hPa57.00 %14.40 °C 
19:00:0024.10 °C1017.20 hPa56.00 %14.80 °C 
18:45:0024.60 °C1017.30 hPa55.00 %15.00 °C 
18:30:0025.00 °C1017.50 hPa55.00 %15.30 °C 
18:15:0025.30 °C1017.50 hPa55.00 %15.60 °C 
18:00:0025.40 °C1017.60 hPa54.00 %15.40 °C 
17:45:0025.40 °C1017.60 hPa54.00 %15.40 °C 
17:30:0025.90 °C1017.60 hPa53.00 %15.60 °C 
17:15:0026.30 °C1017.60 hPa52.00 %15.70 °C 
17:00:0027.10 °C1017.60 hPa51.00 %16.10 °C 
16:45:0027.30 °C1017.80 hPa52.00 %16.60 °C 
16:30:0027.80 °C1017.90 hPa52.00 %17.00 °C 
16:15:0027.30 °C1017.90 hPa52.00 %16.60 °C 
16:00:0026.70 °C1018.00 hPa53.00 %16.30 °C 
15:45:0026.90 °C1018.00 hPa53.00 %183.60 km/hWNW28.20 °C16.50 °C 
15:30:0027.00 °C1018.00 hPa53.00 %16.60 °C 
15:15:0026.10 °C1018.00 hPa56.00 %16.60 °C 
15:00:0024.80 °C1018.20 hPa58.00 %16.00 °C 
14:45:0024.70 °C1018.20 hPa56.00 %15.30 °C 
14:30:0025.70 °C1018.40 hPa54.00 %15.70 °C 
14:15:0026.90 °C1018.50 hPa52.00 %16.20 °C 
14:00:0026.90 °C1018.40 hPa50.00 %15.60 °C 
13:45:0027.10 °C1018.50 hPa52.00 %16.40 °C 
13:30:0026.40 °C1018.50 hPa53.00 %16.00 °C 
13:15:0025.60 °C1018.80 hPa56.00 %16.20 °C 
13:00:0025.20 °C1018.90 hPa56.00 %15.80 °C 
12:45:0025.40 °C1018.90 hPa58.00 %16.50 °C 
12:30:0024.90 °C1019.00 hPa60.00 %16.60 °C 
12:15:0024.20 °C1019.00 hPa60.00 %15.90 °C 
12:00:0023.90 °C1019.20 hPa61.00 %15.90 °C 
11:45:0023.30 °C1019.10 hPa60.00 %15.10 °C 
11:30:0023.40 °C1018.90 hPa63.00 %16.00 °C 
11:15:0022.80 °C1019.00 hPa65.00 %15.90 °C 
11:00:0022.30 °C1019.00 hPa68.00 %16.10 °C 
10:45:0021.80 °C1019.30 hPa70.00 %16.10 °C 
10:30:0021.60 °C1019.20 hPa70.00 %15.90 °C 
10:15:0021.20 °C1019.10 hPa70.00 %15.50 °C 
10:00:0021.90 °C1019.00 hPa72.00 %16.60 °C 
09:45:0020.60 °C1018.90 hPa75.00 %16.00 °C 
09:30:0019.60 °C1018.90 hPa78.00 %15.70 °C 
09:15:0019.10 °C1018.90 hPa79.00 %15.40 °C 
09:00:0018.80 °C1018.90 hPa80.00 %15.30 °C 
08:45:0018.90 °C1018.90 hPa81.00 %15.60 °C 
08:30:0018.80 °C1018.80 hPa83.00 %15.90 °C 
08:15:0018.20 °C1018.60 hPa85.00 %15.60 °C 
08:00:0017.10 °C1018.70 hPa88.00 %15.10 °C 
07:45:0016.40 °C1018.50 hPa88.00 %14.40 °C 
07:30:0016.60 °C1018.30 hPa88.00 %14.60 °C 
07:15:0016.60 °C1018.20 hPa88.00 %14.60 °C 
07:00:0016.40 °C1018.10 hPa89.00 %14.60 °C 
06:45:0016.20 °C1018.00 hPa89.00 %14.40 °C 
06:30:0015.80 °C1017.90 hPa89.00 %14.00 °C 
06:15:0015.40 °C1017.70 hPa89.00 %13.60 °C 
06:00:0015.10 °C1017.90 hPa89.00 %13.30 °C 
05:45:0014.80 °C1017.80 hPa89.00 %13.00 °C 
05:30:0014.40 °C1017.70 hPa89.00 %12.60 °C 
05:15:0014.10 °C1017.60 hPa88.00 %12.10 °C 
05:00:0014.10 °C1017.60 hPa87.00 %12.00 °C 
04:45:0014.40 °C1017.50 hPa87.00 %12.30 °C 
04:30:0014.50 °C1017.50 hPa87.00 %12.40 °C 
04:15:0014.60 °C1017.40 hPa86.00 %12.30 °C 
04:00:0015.30 °C1017.40 hPa86.00 %13.00 °C 
03:45:0015.50 °C1017.50 hPa87.00 %13.30 °C 
03:30:0015.80 °C1017.30 hPa86.00 %13.50 °C 
03:15:0015.80 °C1017.20 hPa86.00 %13.50 °C 
03:00:0015.60 °C1017.30 hPa86.00 %13.30 °C 
02:45:0015.80 °C1017.20 hPa84.00 %13.10 °C 
02:30:0016.20 °C1017.00 hPa85.00 %13.70 °C 
02:15:0016.40 °C1017.10 hPa85.00 %13.90 °C 
02:00:0016.50 °C1016.80 hPa83.00 %13.60 °C 
01:45:0016.80 °C1017.00 hPa83.00 %13.90 °C 
01:30:0017.10 °C1016.90 hPa82.00 %14.00 °C 
01:15:0017.50 °C1016.60 hPa80.00 %14.00 °C 
01:00:0017.90 °C1016.60 hPa79.00 %14.20 °C 
00:45:0018.20 °C1016.50 hPa78.00 %14.30 °C 
00:30:0018.60 °C1016.60 hPa77.00 %14.50 °C 
00:15:0018.90 °C1016.40 hPa73.00 %14.00 °C 
00:00:0019.20 °C1016.40 hPa72.00 %14.00 °C 

Permanenter Link zu dieser Seite: Wetter im Erzgebirge am 05.08.2015
Performance-Info: Die Erstellung der Seite / Statistik(en) / Tabelle(n) erforderte 5 Datenbankserver-Abfrage(n) und dauerte 101 Millisekunden. (Dieser Messwert ist von der Gesamt-Auslastung des Servers abhängig.)
Erzgebirge - Wetter | Erzgebirge - Wetter (Mobilgeräte) | Komplette Klimadatenbank